sensor_id;sensor_type;location;lat;lon;timestamp;P1;durP1;ratioP1;P2;durP2;ratioP2
73729;SDS011;62036;48.128;16.458;2023-05-10T00:02:10;1.15;;;0.73;;
73729;SDS011;62036;48.128;16.458;2023-05-10T00:04:36;1.58;;;0.63;;
73729;SDS011;62036;48.128;16.458;2023-05-10T00:07:02;0.95;;;0.80;;
73729;SDS011;62036;48.128;16.458;2023-05-10T00:09:28;0.82;;;0.63;;
73729;SDS011;62036;48.128;16.458;2023-05-10T00:11:54;1.48;;;1.25;;
73729;SDS011;62036;48.128;16.458;2023-05-10T00:14:23;0.90;;;0.82;;
73729;SDS011;62036;48.128;16.458;2023-05-10T00:16:49;1.50;;;0.90;;
73729;SDS011;62036;48.128;16.458;2023-05-10T00:19:15;2.00;;;1.00;;
73729;SDS011;62036;48.128;16.458;2023-05-10T00:21:41;1.67;;;0.75;;
73729;SDS011;62036;48.128;16.458;2023-05-10T00:24:07;1.38;;;1.05;;
73729;SDS011;62036;48.128;16.458;2023-05-10T00:26:33;1.80;;;0.85;;
73729;SDS011;62036;48.128;16.458;2023-05-10T00:28:59;1.40;;;0.80;;
73729;SDS011;62036;48.128;16.458;2023-05-10T00:31:25;2.22;;;0.98;;
73729;SDS011;62036;48.128;16.458;2023-05-10T00:33:51;2.60;;;1.10;;
73729;SDS011;62036;48.128;16.458;2023-05-10T00:36:17;0.77;;;0.70;;
73729;SDS011;62036;48.128;16.458;2023-05-10T00:38:43;1.00;;;0.60;;
73729;SDS011;62036;48.128;16.458;2023-05-10T00:41:28;1.90;;;0.93;;
73729;SDS011;62036;48.128;16.458;2023-05-10T00:43:54;1.98;;;1.45;;
73729;SDS011;62036;48.128;16.458;2023-05-10T00:46:20;0.88;;;0.77;;
73729;SDS011;62036;48.128;16.458;2023-05-10T00:48:46;2.13;;;0.98;;
73729;SDS011;62036;48.128;16.458;2023-05-10T00:51:13;0.65;;;0.63;;
73729;SDS011;62036;48.128;16.458;2023-05-10T00:53:39;2.35;;;1.00;;
73729;SDS011;62036;48.128;16.458;2023-05-10T00:56:05;1.23;;;0.93;;
73729;SDS011;62036;48.128;16.458;2023-05-10T00:58:32;2.45;;;0.95;;
73729;SDS011;62036;48.128;16.458;2023-05-10T01:00:58;1.05;;;0.95;;
73729;SDS011;62036;48.128;16.458;2023-05-10T01:03:24;1.83;;;0.93;;
73729;SDS011;62036;48.128;16.458;2023-05-10T01:05:51;2.13;;;0.93;;
73729;SDS011;62036;48.128;16.458;2023-05-10T01:08:17;1.95;;;0.80;;
73729;SDS011;62036;48.128;16.458;2023-05-10T01:10:43;2.38;;;1.20;;
73729;SDS011;62036;48.128;16.458;2023-05-10T01:13:09;2.25;;;0.98;;
73729;SDS011;62036;48.128;16.458;2023-05-10T01:15:36;1.70;;;0.85;;
73729;SDS011;62036;48.128;16.458;2023-05-10T01:18:02;1.55;;;1.00;;
73729;SDS011;62036;48.128;16.458;2023-05-10T01:20:34;1.60;;;1.02;;
73729;SDS011;62036;48.128;16.458;2023-05-10T01:23:12;1.13;;;0.80;;
73729;SDS011;62036;48.128;16.458;2023-05-10T01:33:01;2.53;;;1.02;;
73729;SDS011;62036;48.128;16.458;2023-05-10T01:35:40;0.55;;;0.55;;
73729;SDS011;62036;48.128;16.458;2023-05-10T01:38:10;1.83;;;1.02;;
73729;SDS011;62036;48.128;16.458;2023-05-10T01:43:08;0.85;;;0.68;;
73729;SDS011;62036;48.128;16.458;2023-05-10T01:45:37;1.55;;;0.90;;
73729;SDS011;62036;48.128;16.458;2023-05-10T01:48:06;1.42;;;0.93;;
73729;SDS011;62036;48.128;16.458;2023-05-10T01:50:32;2.05;;;0.98;;
73729;SDS011;62036;48.128;16.458;2023-05-10T01:52:59;0.57;;;0.55;;
73729;SDS011;62036;48.128;16.458;2023-05-10T01:55:27;1.60;;;1.30;;
73729;SDS011;62036;48.128;16.458;2023-05-10T01:57:57;1.10;;;0.88;;
73729;SDS011;62036;48.128;16.458;2023-05-10T02:00:24;1.10;;;0.70;;
73729;SDS011;62036;48.128;16.458;2023-05-10T02:02:50;1.75;;;1.02;;
73729;SDS011;62036;48.128;16.458;2023-05-10T02:05:18;1.67;;;1.13;;
73729;SDS011;62036;48.128;16.458;2023-05-10T02:07:44;1.88;;;0.80;;
73729;SDS011;62036;48.128;16.458;2023-05-10T02:10:11;2.42;;;1.13;;
73729;SDS011;62036;48.128;16.458;2023-05-10T02:12:39;1.20;;;1.02;;
73729;SDS011;62036;48.128;16.458;2023-05-10T02:15:06;1.27;;;0.80;;
73729;SDS011;62036;48.128;16.458;2023-05-10T02:17:34;1.40;;;1.08;;
73729;SDS011;62036;48.128;16.458;2023-05-10T02:20:01;1.33;;;1.13;;
73729;SDS011;62036;48.128;16.458;2023-05-10T02:22:28;1.65;;;1.23;;
73729;SDS011;62036;48.128;16.458;2023-05-10T02:24:58;1.63;;;1.10;;
73729;SDS011;62036;48.128;16.458;2023-05-10T02:27:25;1.17;;;1.00;;
73729;SDS011;62036;48.128;16.458;2023-05-10T02:29:53;1.50;;;0.63;;
73729;SDS011;62036;48.128;16.458;2023-05-10T02:32:20;3.25;;;1.23;;
73729;SDS011;62036;48.128;16.458;2023-05-10T02:34:47;1.23;;;0.90;;
73729;SDS011;62036;48.128;16.458;2023-05-10T02:37:17;1.02;;;0.57;;
73729;SDS011;62036;48.128;16.458;2023-05-10T02:39:45;5.35;;;1.20;;
73729;SDS011;62036;48.128;16.458;2023-05-10T02:42:12;2.33;;;1.23;;
73729;SDS011;62036;48.128;16.458;2023-05-10T02:44:40;2.25;;;1.52;;
73729;SDS011;62036;48.128;16.458;2023-05-10T02:47:07;1.88;;;1.10;;
73729;SDS011;62036;48.128;16.458;2023-05-10T02:49:33;1.77;;;1.02;;
73729;SDS011;62036;48.128;16.458;2023-05-10T02:52:00;0.98;;;0.98;;
73729;SDS011;62036;48.128;16.458;2023-05-10T02:54:30;3.00;;;1.08;;
73729;SDS011;62036;48.128;16.458;2023-05-10T02:56:58;1.55;;;0.90;;
73729;SDS011;62036;48.128;16.458;2023-05-10T02:59:27;1.55;;;0.70;;
73729;SDS011;62036;48.128;16.458;2023-05-10T03:01:53;4.25;;;2.13;;
73729;SDS011;62036;48.128;16.458;2023-05-10T03:04:19;1.08;;;0.65;;
73729;SDS011;62036;48.128;16.458;2023-05-10T03:06:45;0.90;;;0.77;;
73729;SDS011;62036;48.128;16.458;2023-05-10T03:09:12;1.00;;;0.73;;
73729;SDS011;62036;48.128;16.458;2023-05-10T03:14:21;2.10;;;0.82;;
73729;SDS011;62036;48.128;16.458;2023-05-10T03:16:52;0.70;;;0.47;;
73729;SDS011;62036;48.128;16.458;2023-05-10T03:19:24;3.63;;;1.90;;
73729;SDS011;62036;48.128;16.458;2023-05-10T03:21:52;2.03;;;1.35;;
73729;SDS011;62036;48.128;16.458;2023-05-10T03:24:20;3.13;;;1.35;;
73729;SDS011;62036;48.128;16.458;2023-05-10T03:26:47;1.20;;;0.85;;
73729;SDS011;62036;48.128;16.458;2023-05-10T03:29:15;1.00;;;0.63;;
73729;SDS011;62036;48.128;16.458;2023-05-10T03:31:41;2.78;;;1.52;;
73729;SDS011;62036;48.128;16.458;2023-05-10T03:34:07;2.33;;;1.40;;
73729;SDS011;62036;48.128;16.458;2023-05-10T03:36:33;3.60;;;1.38;;
73729;SDS011;62036;48.128;16.458;2023-05-10T03:39:00;0.73;;;0.73;;
73729;SDS011;62036;48.128;16.458;2023-05-10T03:41:26;3.13;;;1.40;;
73729;SDS011;62036;48.128;16.458;2023-05-10T03:43:52;1.88;;;0.80;;
73729;SDS011;62036;48.128;16.458;2023-05-10T03:46:18;1.35;;;0.95;;
73729;SDS011;62036;48.128;16.458;2023-05-10T03:48:44;1.90;;;1.13;;
73729;SDS011;62036;48.128;16.458;2023-05-10T03:51:10;3.92;;;1.00;;
73729;SDS011;62036;48.128;16.458;2023-05-10T03:53:36;1.80;;;1.10;;
73729;SDS011;62036;48.128;16.458;2023-05-10T03:56:02;1.30;;;0.77;;
73729;SDS011;62036;48.128;16.458;2023-05-10T03:58:28;1.30;;;0.73;;
73729;SDS011;62036;48.128;16.458;2023-05-10T04:00:54;3.95;;;1.63;;
73729;SDS011;62036;48.128;16.458;2023-05-10T04:03:20;1.92;;;1.05;;
73729;SDS011;62036;48.128;16.458;2023-05-10T04:05:46;1.38;;;0.80;;
73729;SDS011;62036;48.128;16.458;2023-05-10T04:08:13;0.80;;;0.73;;
73729;SDS011;62036;48.128;16.458;2023-05-10T04:10:41;2.85;;;1.05;;
73729;SDS011;62036;48.128;16.458;2023-05-10T04:13:07;3.50;;;1.40;;
73729;SDS011;62036;48.128;16.458;2023-05-10T04:15:33;5.13;;;1.30;;
73729;SDS011;62036;48.128;16.458;2023-05-10T04:18:00;1.98;;;1.08;;
73729;SDS011;62036;48.128;16.458;2023-05-10T04:20:26;3.28;;;1.58;;
73729;SDS011;62036;48.128;16.458;2023-05-10T04:22:52;1.92;;;1.45;;
73729;SDS011;62036;48.128;16.458;2023-05-10T04:25:18;1.35;;;0.98;;
73729;SDS011;62036;48.128;16.458;2023-05-10T04:27:44;2.75;;;1.05;;
73729;SDS011;62036;48.128;16.458;2023-05-10T04:30:13;1.45;;;1.10;;
73729;SDS011;62036;48.128;16.458;2023-05-10T04:32:39;1.05;;;0.75;;
73729;SDS011;62036;48.128;16.458;2023-05-10T04:35:05;2.80;;;1.35;;
73729;SDS011;62036;48.128;16.458;2023-05-10T04:37:31;1.70;;;1.60;;
73729;SDS011;62036;48.128;16.458;2023-05-10T04:39:57;2.40;;;1.38;;
73729;SDS011;62036;48.128;16.458;2023-05-10T04:42:24;3.42;;;1.63;;
73729;SDS011;62036;48.128;16.458;2023-05-10T04:44:51;3.35;;;1.92;;
73729;SDS011;62036;48.128;16.458;2023-05-10T04:47:17;2.67;;;1.42;;
73729;SDS011;62036;48.128;16.458;2023-05-10T04:49:43;2.58;;;1.52;;
73729;SDS011;62036;48.128;16.458;2023-05-10T04:52:09;1.95;;;1.17;;
73729;SDS011;62036;48.128;16.458;2023-05-10T04:54:36;2.40;;;1.17;;
73729;SDS011;62036;48.128;16.458;2023-05-10T04:57:02;1.80;;;1.13;;
73729;SDS011;62036;48.128;16.458;2023-05-10T04:59:28;2.47;;;1.30;;
73729;SDS011;62036;48.128;16.458;2023-05-10T05:01:54;4.63;;;2.40;;
73729;SDS011;62036;48.128;16.458;2023-05-10T05:04:20;2.28;;;1.63;;
73729;SDS011;62036;48.128;16.458;2023-05-10T05:06:48;2.42;;;2.10;;
73729;SDS011;62036;48.128;16.458;2023-05-10T05:09:14;2.08;;;1.27;;
73729;SDS011;62036;48.128;16.458;2023-05-10T05:11:41;3.65;;;1.98;;
73729;SDS011;62036;48.128;16.458;2023-05-10T05:14:07;2.72;;;1.13;;
73729;SDS011;62036;48.128;16.458;2023-05-10T05:16:33;1.98;;;1.45;;
73729;SDS011;62036;48.128;16.458;2023-05-10T05:18:59;1.73;;;1.42;;
73729;SDS011;62036;48.128;16.458;2023-05-10T05:21:25;2.58;;;1.33;;
73729;SDS011;62036;48.128;16.458;2023-05-10T05:23:52;3.80;;;1.45;;
73729;SDS011;62036;48.128;16.458;2023-05-10T05:26:18;2.45;;;1.60;;
73729;SDS011;62036;48.128;16.458;2023-05-10T05:28:44;1.63;;;1.38;;
73729;SDS011;62036;48.128;16.458;2023-05-10T05:31:10;2.85;;;1.42;;
73729;SDS011;62036;48.128;16.458;2023-05-10T05:33:36;1.77;;;1.27;;
73729;SDS011;62036;48.128;16.458;2023-05-10T05:36:03;2.42;;;1.75;;
73729;SDS011;62036;48.128;16.458;2023-05-10T05:38:29;1.67;;;1.13;;
73729;SDS011;62036;48.128;16.458;2023-05-10T05:40:55;2.85;;;1.63;;
73729;SDS011;62036;48.128;16.458;2023-05-10T05:43:21;2.13;;;1.45;;
73729;SDS011;62036;48.128;16.458;2023-05-10T05:45:47;4.10;;;1.75;;
73729;SDS011;62036;48.128;16.458;2023-05-10T05:48:13;2.92;;;1.13;;
73729;SDS011;62036;48.128;16.458;2023-05-10T05:50:40;3.00;;;1.30;;
73729;SDS011;62036;48.128;16.458;2023-05-10T05:53:06;2.83;;;1.25;;
73729;SDS011;62036;48.128;16.458;2023-05-10T05:55:32;3.00;;;1.13;;
73729;SDS011;62036;48.128;16.458;2023-05-10T05:57:58;2.00;;;1.40;;
73729;SDS011;62036;48.128;16.458;2023-05-10T06:00:24;2.25;;;1.23;;
73729;SDS011;62036;48.128;16.458;2023-05-10T06:02:50;5.47;;;1.40;;
73729;SDS011;62036;48.128;16.458;2023-05-10T06:05:17;2.13;;;1.30;;
73729;SDS011;62036;48.128;16.458;2023-05-10T06:07:43;2.15;;;1.10;;
73729;SDS011;62036;48.128;16.458;2023-05-10T06:10:09;2.83;;;1.52;;
73729;SDS011;62036;48.128;16.458;2023-05-10T06:12:35;1.25;;;1.00;;
73729;SDS011;62036;48.128;16.458;2023-05-10T06:15:01;0.82;;;0.82;;
73729;SDS011;62036;48.128;16.458;2023-05-10T06:17:27;3.00;;;1.67;;
73729;SDS011;62036;48.128;16.458;2023-05-10T06:19:53;1.88;;;1.13;;
73729;SDS011;62036;48.128;16.458;2023-05-10T06:22:19;1.67;;;1.02;;
73729;SDS011;62036;48.128;16.458;2023-05-10T06:24:47;2.97;;;1.73;;
73729;SDS011;62036;48.128;16.458;2023-05-10T06:27:13;2.40;;;1.25;;
73729;SDS011;62036;48.128;16.458;2023-05-10T06:29:39;1.77;;;1.35;;
73729;SDS011;62036;48.128;16.458;2023-05-10T06:32:05;2.63;;;1.42;;
73729;SDS011;62036;48.128;16.458;2023-05-10T06:34:31;1.88;;;1.15;;
73729;SDS011;62036;48.128;16.458;2023-05-10T06:36:57;1.85;;;1.50;;
73729;SDS011;62036;48.128;16.458;2023-05-10T06:39:24;1.95;;;1.13;;
73729;SDS011;62036;48.128;16.458;2023-05-10T06:41:50;2.90;;;1.38;;
73729;SDS011;62036;48.128;16.458;2023-05-10T06:44:16;3.10;;;1.60;;
73729;SDS011;62036;48.128;16.458;2023-05-10T06:46:42;2.60;;;1.73;;
73729;SDS011;62036;48.128;16.458;2023-05-10T06:49:08;2.00;;;0.88;;
73729;SDS011;62036;48.128;16.458;2023-05-10T06:51:34;4.30;;;1.55;;
73729;SDS011;62036;48.128;16.458;2023-05-10T06:54:00;2.38;;;1.23;;
73729;SDS011;62036;48.128;16.458;2023-05-10T06:56:26;3.05;;;1.58;;
73729;SDS011;62036;48.128;16.458;2023-05-10T06:58:52;3.67;;;2.03;;
73729;SDS011;62036;48.128;16.458;2023-05-10T07:01:18;2.58;;;1.30;;
73729;SDS011;62036;48.128;16.458;2023-05-10T07:03:44;2.05;;;1.42;;
73729;SDS011;62036;48.128;16.458;2023-05-10T07:06:10;1.17;;;1.02;;
73729;SDS011;62036;48.128;16.458;2023-05-10T07:08:36;4.60;;;1.73;;
73729;SDS011;62036;48.128;16.458;2023-05-10T07:11:03;2.65;;;1.83;;
73729;SDS011;62036;48.128;16.458;2023-05-10T07:13:30;3.22;;;1.85;;
73729;SDS011;62036;48.128;16.458;2023-05-10T07:15:56;3.65;;;1.52;;
73729;SDS011;62036;48.128;16.458;2023-05-10T07:18:23;2.72;;;1.55;;
73729;SDS011;62036;48.128;16.458;2023-05-10T07:20:49;2.78;;;1.60;;
73729;SDS011;62036;48.128;16.458;2023-05-10T07:23:15;1.83;;;1.60;;
73729;SDS011;62036;48.128;16.458;2023-05-10T07:25:44;1.98;;;1.65;;
73729;SDS011;62036;48.128;16.458;2023-05-10T07:28:10;2.42;;;1.80;;
73729;SDS011;62036;48.128;16.458;2023-05-10T07:30:36;3.22;;;1.60;;
73729;SDS011;62036;48.128;16.458;2023-05-10T07:33:02;1.92;;;1.23;;
73729;SDS011;62036;48.128;16.458;2023-05-10T07:35:28;3.30;;;2.00;;
73729;SDS011;62036;48.128;16.458;2023-05-10T07:37:54;3.83;;;2.15;;
73729;SDS011;62036;48.128;16.458;2023-05-10T07:40:21;4.55;;;2.25;;
73729;SDS011;62036;48.128;16.458;2023-05-10T07:42:47;3.13;;;2.17;;
73729;SDS011;62036;48.128;16.458;2023-05-10T07:45:13;3.40;;;2.00;;
73729;SDS011;62036;48.128;16.458;2023-05-10T07:47:39;3.05;;;1.85;;
73729;SDS011;62036;48.128;16.458;2023-05-10T07:50:05;2.70;;;1.65;;
73729;SDS011;62036;48.128;16.458;2023-05-10T07:52:32;2.67;;;1.52;;
73729;SDS011;62036;48.128;16.458;2023-05-10T07:54:58;2.53;;;1.33;;
73729;SDS011;62036;48.128;16.458;2023-05-10T07:57:24;3.10;;;1.55;;
73729;SDS011;62036;48.128;16.458;2023-05-10T07:59:50;2.05;;;1.20;;
73729;SDS011;62036;48.128;16.458;2023-05-10T08:02:16;2.90;;;2.00;;
73729;SDS011;62036;48.128;16.458;2023-05-10T08:04:42;3.58;;;2.20;;
73729;SDS011;62036;48.128;16.458;2023-05-10T08:07:08;3.92;;;1.70;;
73729;SDS011;62036;48.128;16.458;2023-05-10T08:09:34;1.73;;;1.30;;
73729;SDS011;62036;48.128;16.458;2023-05-10T08:12:00;2.25;;;1.48;;
73729;SDS011;62036;48.128;16.458;2023-05-10T08:14:27;3.28;;;1.52;;
73729;SDS011;62036;48.128;16.458;2023-05-10T08:16:54;3.15;;;1.30;;
73729;SDS011;62036;48.128;16.458;2023-05-10T08:19:20;1.92;;;1.45;;
73729;SDS011;62036;48.128;16.458;2023-05-10T08:21:47;2.97;;;1.40;;
73729;SDS011;62036;48.128;16.458;2023-05-10T08:24:13;2.78;;;1.77;;
73729;SDS011;62036;48.128;16.458;2023-05-10T08:26:39;1.50;;;1.30;;
73729;SDS011;62036;48.128;16.458;2023-05-10T08:29:05;3.00;;;1.70;;
73729;SDS011;62036;48.128;16.458;2023-05-10T08:31:31;2.35;;;1.58;;
73729;SDS011;62036;48.128;16.458;2023-05-10T08:33:57;1.88;;;1.38;;
73729;SDS011;62036;48.128;16.458;2023-05-10T08:36:23;3.15;;;1.42;;
73729;SDS011;62036;48.128;16.458;2023-05-10T08:38:50;1.92;;;1.50;;
73729;SDS011;62036;48.128;16.458;2023-05-10T08:41:18;2.42;;;1.20;;
73729;SDS011;62036;48.128;16.458;2023-05-10T08:43:45;2.35;;;1.52;;
73729;SDS011;62036;48.128;16.458;2023-05-10T08:46:13;1.35;;;1.15;;
73729;SDS011;62036;48.128;16.458;2023-05-10T08:48:42;1.77;;;0.93;;
73729;SDS011;62036;48.128;16.458;2023-05-10T08:51:08;2.90;;;1.65;;
73729;SDS011;62036;48.128;16.458;2023-05-10T08:53:35;1.17;;;0.90;;
73729;SDS011;62036;48.128;16.458;2023-05-10T08:56:02;1.35;;;0.90;;
73729;SDS011;62036;48.128;16.458;2023-05-10T08:58:29;1.48;;;0.80;;
73729;SDS011;62036;48.128;16.458;2023-05-10T09:00:55;0.88;;;0.73;;
73729;SDS011;62036;48.128;16.458;2023-05-10T09:03:22;1.92;;;0.95;;
73729;SDS011;62036;48.128;16.458;2023-05-10T09:05:48;1.55;;;0.95;;
73729;SDS011;62036;48.128;16.458;2023-05-10T09:08:15;2.17;;;0.95;;
73729;SDS011;62036;48.128;16.458;2023-05-10T09:10:42;1.02;;;0.68;;
73729;SDS011;62036;48.128;16.458;2023-05-10T09:13:09;1.52;;;0.82;;
73729;SDS011;62036;48.128;16.458;2023-05-10T09:15:35;0.52;;;0.40;;
73729;SDS011;62036;48.128;16.458;2023-05-10T09:18:01;1.05;;;0.80;;
73729;SDS011;62036;48.128;16.458;2023-05-10T09:20:27;1.05;;;0.45;;
73729;SDS011;62036;48.128;16.458;2023-05-10T09:22:54;0.60;;;0.47;;
73729;SDS011;62036;48.128;16.458;2023-05-10T09:25:20;0.95;;;0.52;;
73729;SDS011;62036;48.128;16.458;2023-05-10T09:27:46;0.93;;;0.63;;
73729;SDS011;62036;48.128;16.458;2023-05-10T09:30:17;1.00;;;0.50;;
73729;SDS011;62036;48.128;16.458;2023-05-10T09:32:44;0.80;;;0.57;;
73729;SDS011;62036;48.128;16.458;2023-05-10T09:35:11;0.77;;;0.60;;
73729;SDS011;62036;48.128;16.458;2023-05-10T09:37:40;0.98;;;0.57;;
73729;SDS011;62036;48.128;16.458;2023-05-10T09:40:15;0.60;;;0.50;;
73729;SDS011;62036;48.128;16.458;2023-05-10T09:42:54;0.50;;;0.50;;
73729;SDS011;62036;48.128;16.458;2023-05-10T09:45:24;0.73;;;0.50;;
73729;SDS011;62036;48.128;16.458;2023-05-10T09:47:50;0.90;;;0.65;;
73729;SDS011;62036;48.128;16.458;2023-05-10T09:50:17;0.70;;;0.68;;
73729;SDS011;62036;48.128;16.458;2023-05-10T09:52:53;0.73;;;0.50;;
73729;SDS011;62036;48.128;16.458;2023-05-10T09:55:20;0.52;;;0.40;;
73729;SDS011;62036;48.128;16.458;2023-05-10T09:57:49;1.23;;;0.60;;
73729;SDS011;62036;48.128;16.458;2023-05-10T10:00:23;1.02;;;0.65;;
73729;SDS011;62036;48.128;16.458;2023-05-10T10:02:59;0.73;;;0.40;;
73729;SDS011;62036;48.128;16.458;2023-05-10T10:05:34;0.50;;;0.40;;
73729;SDS011;62036;48.128;16.458;2023-05-10T10:08:01;0.47;;;0.40;;
73729;SDS011;62036;48.128;16.458;2023-05-10T10:10:31;0.60;;;0.50;;
73729;SDS011;62036;48.128;16.458;2023-05-10T10:13:00;1.08;;;0.73;;
73729;SDS011;62036;48.128;16.458;2023-05-10T10:15:26;0.68;;;0.50;;
73729;SDS011;62036;48.128;16.458;2023-05-10T10:17:55;0.65;;;0.50;;
73729;SDS011;62036;48.128;16.458;2023-05-10T10:20:22;0.57;;;0.50;;
73729;SDS011;62036;48.128;16.458;2023-05-10T10:22:49;0.57;;;0.50;;
73729;SDS011;62036;48.128;16.458;2023-05-10T10:25:16;0.82;;;0.60;;
73729;SDS011;62036;48.128;16.458;2023-05-10T10:27:54;0.93;;;0.40;;
73729;SDS011;62036;48.128;16.458;2023-05-10T10:35:32;1.35;;;0.60;;
73729;SDS011;62036;48.128;16.458;2023-05-10T10:37:59;0.93;;;0.55;;
73729;SDS011;62036;48.128;16.458;2023-05-10T10:40:29;1.42;;;0.50;;
73729;SDS011;62036;48.128;16.458;2023-05-10T10:42:56;0.75;;;0.60;;
73729;SDS011;62036;48.128;16.458;2023-05-10T10:45:23;1.35;;;0.93;;
73729;SDS011;62036;48.128;16.458;2023-05-10T10:48:05;0.50;;;0.50;;
73729;SDS011;62036;48.128;16.458;2023-05-10T10:50:43;0.90;;;0.60;;
73729;SDS011;62036;48.128;16.458;2023-05-10T10:53:10;0.70;;;0.60;;
73729;SDS011;62036;48.128;16.458;2023-05-10T10:55:44;0.93;;;0.70;;
73729;SDS011;62036;48.128;16.458;2023-05-10T10:58:12;0.80;;;0.50;;
73729;SDS011;62036;48.128;16.458;2023-05-10T11:01:08;1.23;;;0.68;;
73729;SDS011;62036;48.128;16.458;2023-05-10T11:03:37;0.70;;;0.68;;
73729;SDS011;62036;48.128;16.458;2023-05-10T11:06:03;0.90;;;0.73;;
73729;SDS011;62036;48.128;16.458;2023-05-10T11:08:30;2.22;;;1.10;;
73729;SDS011;62036;48.128;16.458;2023-05-10T11:16:17;0.50;;;0.50;;
73729;SDS011;62036;48.128;16.458;2023-05-10T11:19:02;0.73;;;0.55;;
73729;SDS011;62036;48.128;16.458;2023-05-10T11:21:29;0.98;;;0.52;;
73729;SDS011;62036;48.128;16.458;2023-05-10T11:23:56;2.47;;;0.80;;
73729;SDS011;62036;48.128;16.458;2023-05-10T11:26:29;0.75;;;0.63;;
73729;SDS011;62036;48.128;16.458;2023-05-10T11:28:55;1.08;;;0.63;;
73729;SDS011;62036;48.128;16.458;2023-05-10T11:31:22;0.52;;;0.45;;
73729;SDS011;62036;48.128;16.458;2023-05-10T11:33:49;0.77;;;0.60;;
73729;SDS011;62036;48.128;16.458;2023-05-10T11:36:17;0.65;;;0.60;;
73729;SDS011;62036;48.128;16.458;2023-05-10T11:38:44;0.52;;;0.50;;
73729;SDS011;62036;48.128;16.458;2023-05-10T11:41:10;1.27;;;0.73;;
73729;SDS011;62036;48.128;16.458;2023-05-10T11:43:38;0.50;;;0.50;;
73729;SDS011;62036;48.128;16.458;2023-05-10T11:46:05;0.90;;;0.50;;
73729;SDS011;62036;48.128;16.458;2023-05-10T11:48:31;0.63;;;0.50;;
73729;SDS011;62036;48.128;16.458;2023-05-10T11:50:58;0.60;;;0.40;;
73729;SDS011;62036;48.128;16.458;2023-05-10T11:53:27;0.82;;;0.60;;
73729;SDS011;62036;48.128;16.458;2023-05-10T11:55:54;0.98;;;0.60;;
73729;SDS011;62036;48.128;16.458;2023-05-10T11:58:20;0.68;;;0.68;;
73729;SDS011;62036;48.128;16.458;2023-05-10T12:00:47;0.90;;;0.77;;
73729;SDS011;62036;48.128;16.458;2023-05-10T12:03:13;1.42;;;0.60;;
73729;SDS011;62036;48.128;16.458;2023-05-10T12:05:40;0.77;;;0.65;;
73729;SDS011;62036;48.128;16.458;2023-05-10T12:08:13;0.77;;;0.52;;
73729;SDS011;62036;48.128;16.458;2023-05-10T12:10:40;3.20;;;0.50;;
73729;SDS011;62036;48.128;16.458;2023-05-10T12:13:10;0.40;;;0.40;;
73729;SDS011;62036;48.128;16.458;2023-05-10T12:18:03;0.47;;;0.40;;
73729;SDS011;62036;48.128;16.458;2023-05-10T12:20:30;0.70;;;0.70;;
73729;SDS011;62036;48.128;16.458;2023-05-10T12:22:57;0.98;;;0.50;;
73729;SDS011;62036;48.128;16.458;2023-05-10T12:25:24;0.45;;;0.35;;
73729;SDS011;62036;48.128;16.458;2023-05-10T12:27:51;0.80;;;0.50;;
73729;SDS011;62036;48.128;16.458;2023-05-10T12:30:21;0.52;;;0.47;;
73729;SDS011;62036;48.128;16.458;2023-05-10T12:32:48;0.80;;;0.52;;
73729;SDS011;62036;48.128;16.458;2023-05-10T12:35:14;1.25;;;1.02;;
73729;SDS011;62036;48.128;16.458;2023-05-10T12:37:41;1.00;;;0.80;;
73729;SDS011;62036;48.128;16.458;2023-05-10T12:40:08;0.68;;;0.60;;
73729;SDS011;62036;48.128;16.458;2023-05-10T12:42:35;0.93;;;0.82;;
73729;SDS011;62036;48.128;16.458;2023-05-10T12:45:02;0.90;;;0.90;;
73729;SDS011;62036;48.128;16.458;2023-05-10T12:47:28;0.90;;;0.80;;
73729;SDS011;62036;48.128;16.458;2023-05-10T12:49:55;0.63;;;0.60;;
73729;SDS011;62036;48.128;16.458;2023-05-10T12:52:21;0.73;;;0.73;;
73729;SDS011;62036;48.128;16.458;2023-05-10T12:54:47;1.13;;;0.80;;
73729;SDS011;62036;48.128;16.458;2023-05-10T12:57:14;1.05;;;0.82;;
73729;SDS011;62036;48.128;16.458;2023-05-10T12:59:40;1.70;;;0.90;;
73729;SDS011;62036;48.128;16.458;2023-05-10T13:02:06;1.75;;;1.10;;
73729;SDS011;62036;48.128;16.458;2023-05-10T13:04:32;1.10;;;1.00;;
73729;SDS011;62036;48.128;16.458;2023-05-10T13:06:58;1.08;;;0.85;;
73729;SDS011;62036;48.128;16.458;2023-05-10T13:09:24;1.35;;;0.95;;
73729;SDS011;62036;48.128;16.458;2023-05-10T13:11:51;1.17;;;1.08;;
73729;SDS011;62036;48.128;16.458;2023-05-10T13:14:19;1.13;;;0.98;;
73729;SDS011;62036;48.128;16.458;2023-05-10T13:16:48;1.77;;;1.10;;
73729;SDS011;62036;48.128;16.458;2023-05-10T13:19:14;0.82;;;0.82;;
73729;SDS011;62036;48.128;16.458;2023-05-10T13:21:40;0.80;;;0.68;;
73729;SDS011;62036;48.128;16.458;2023-05-10T13:24:06;0.88;;;0.88;;
73729;SDS011;62036;48.128;16.458;2023-05-10T13:26:32;1.10;;;1.00;;
73729;SDS011;62036;48.128;16.458;2023-05-10T13:28:58;1.40;;;1.10;;
73729;SDS011;62036;48.128;16.458;2023-05-10T13:31:24;1.00;;;0.90;;
73729;SDS011;62036;48.128;16.458;2023-05-10T13:33:50;1.05;;;0.82;;
73729;SDS011;62036;48.128;16.458;2023-05-10T13:36:16;0.90;;;0.73;;
73729;SDS011;62036;48.128;16.458;2023-05-10T13:38:42;1.45;;;0.93;;
73729;SDS011;62036;48.128;16.458;2023-05-10T13:41:08;1.20;;;0.82;;
73729;SDS011;62036;48.128;16.458;2023-05-10T13:43:34;2.88;;;0.88;;
73729;SDS011;62036;48.128;16.458;2023-05-10T13:46:01;0.82;;;0.80;;
73729;SDS011;62036;48.128;16.458;2023-05-10T13:48:30;0.80;;;0.80;;
73729;SDS011;62036;48.128;16.458;2023-05-10T13:50:56;1.30;;;0.80;;
73729;SDS011;62036;48.128;16.458;2023-05-10T13:53:22;0.88;;;0.77;;
73729;SDS011;62036;48.128;16.458;2023-05-10T13:55:48;1.00;;;0.70;;
73729;SDS011;62036;48.128;16.458;2023-05-10T13:58:14;0.77;;;0.77;;
73729;SDS011;62036;48.128;16.458;2023-05-10T14:00:40;1.13;;;0.68;;
73729;SDS011;62036;48.128;16.458;2023-05-10T14:03:06;1.17;;;1.05;;
73729;SDS011;62036;48.128;16.458;2023-05-10T14:05:35;1.65;;;1.45;;
73729;SDS011;62036;48.128;16.458;2023-05-10T14:08:01;0.98;;;0.85;;
73729;SDS011;62036;48.128;16.458;2023-05-10T14:10:27;1.27;;;0.85;;
73729;SDS011;62036;48.128;16.458;2023-05-10T14:12:53;0.98;;;0.60;;
73729;SDS011;62036;48.128;16.458;2023-05-10T14:15:19;0.82;;;0.80;;
73729;SDS011;62036;48.128;16.458;2023-05-10T14:17:45;0.88;;;0.50;;
73729;SDS011;62036;48.128;16.458;2023-05-10T14:20:11;1.10;;;0.68;;
73729;SDS011;62036;48.128;16.458;2023-05-10T14:22:37;1.02;;;0.93;;
73729;SDS011;62036;48.128;16.458;2023-05-10T14:25:03;1.70;;;1.27;;
73729;SDS011;62036;48.128;16.458;2023-05-10T14:27:30;1.45;;;0.80;;
73729;SDS011;62036;48.128;16.458;2023-05-10T14:29:56;0.93;;;0.93;;
73729;SDS011;62036;48.128;16.458;2023-05-10T14:32:22;3.47;;;2.15;;
73729;SDS011;62036;48.128;16.458;2023-05-10T14:34:48;0.73;;;0.68;;
73729;SDS011;62036;48.128;16.458;2023-05-10T14:37:14;2.25;;;0.80;;
73729;SDS011;62036;48.128;16.458;2023-05-10T14:39:40;0.93;;;0.80;;
73729;SDS011;62036;48.128;16.458;2023-05-10T14:42:07;1.33;;;0.77;;
73729;SDS011;62036;48.128;16.458;2023-05-10T14:44:33;1.02;;;0.70;;
73729;SDS011;62036;48.128;16.458;2023-05-10T14:46:59;2.17;;;1.63;;
73729;SDS011;62036;48.128;16.458;2023-05-10T14:49:26;0.88;;;0.63;;
73729;SDS011;62036;48.128;16.458;2023-05-10T14:51:52;1.38;;;0.60;;
73729;SDS011;62036;48.128;16.458;2023-05-10T14:54:18;2.47;;;0.60;;
73729;SDS011;62036;48.128;16.458;2023-05-10T14:56:44;0.77;;;0.60;;
73729;SDS011;62036;48.128;16.458;2023-05-10T14:59:10;0.60;;;0.45;;